createdAt,value
2017-06-25T00:00:15.542Z,75.10
2017-06-25T00:02:44.093Z,75.10
2017-06-25T00:05:12.705Z,75.00
2017-06-25T00:07:40.974Z,75.40
2017-06-25T00:10:09.298Z,74.80
2017-06-25T00:12:37.574Z,75.10
2017-06-25T00:15:05.949Z,75.10
2017-06-25T00:17:34.266Z,74.90
2017-06-25T00:20:02.537Z,75.40
2017-06-25T00:22:30.857Z,75.10
2017-06-25T00:24:59.136Z,75.40
2017-06-25T00:27:27.530Z,76.00
2017-06-25T00:29:55.913Z,75.80
2017-06-25T00:32:24.294Z,76.60
2017-06-25T00:34:52.622Z,77.10
2017-06-25T00:37:20.946Z,76.70
2017-06-25T00:39:49.210Z,76.30
2017-06-25T00:42:17.522Z,77.00
2017-06-25T00:44:46.601Z,76.50
2017-06-25T00:47:14.878Z,76.50
2017-06-25T00:49:43.253Z,77.30
2017-06-25T00:52:11.570Z,77.20
2017-06-25T00:54:39.845Z,77.70
2017-06-25T00:57:08.170Z,77.50
2017-06-25T00:59:36.559Z,77.00
2017-06-25T01:02:04.826Z,77.00
2017-06-25T01:04:33.133Z,77.00
2017-06-25T01:07:02.309Z,77.40
2017-06-25T01:09:30.690Z,77.40
2017-06-25T01:11:59.064Z,78.10
2017-06-25T01:14:27.366Z,77.60
2017-06-25T01:16:56.549Z,77.60
2017-06-25T01:19:24.866Z,77.60
2017-06-25T01:21:54.041Z,77.90
2017-06-25T01:24:23.122Z,78.10
2017-06-25T01:26:51.598Z,77.80
2017-06-25T01:29:19.866Z,77.60
2017-06-25T01:31:48.258Z,77.50
2017-06-25T01:34:16.583Z,78.40
2017-06-25T01:36:44.858Z,77.50
2017-06-25T01:39:13.190Z,77.30
2017-06-25T01:41:41.873Z,77.30
2017-06-25T01:44:10.145Z,77.10
2017-06-25T01:46:38.422Z,76.60
2017-06-25T01:49:06.730Z,76.30
2017-06-25T01:51:35.897Z,76.90
2017-06-25T01:54:04.178Z,76.90
2017-06-25T01:56:32.445Z,77.10
2017-06-25T01:59:00.752Z,77.10
2017-06-25T02:01:29.805Z,77.30
2017-06-25T02:03:58.114Z,77.30
2017-06-25T02:06:26.481Z,77.30
2017-06-25T02:08:54.797Z,77.00
2017-06-25T02:11:23.107Z,77.30
2017-06-25T02:13:51.427Z,77.60
2017-06-25T02:16:20.509Z,78.20
2017-06-25T02:18:48.889Z,77.50
2017-06-25T02:21:17.266Z,77.70
2017-06-25T02:23:45.542Z,77.90
2017-06-25T02:26:14.726Z,78.10
2017-06-25T02:28:43.006Z,78.00
2017-06-25T02:31:12.062Z,77.90
2017-06-25T02:33:40.390Z,77.80
2017-06-25T02:36:09.435Z,77.70
2017-06-25T02:38:37.742Z,77.60
2017-06-25T02:41:06.117Z,77.60
2017-06-25T02:43:34.405Z,77.80
2017-06-25T02:46:03.486Z,78.20
2017-06-25T02:48:31.872Z,77.60
2017-06-25T02:51:00.204Z,77.80
2017-06-25T02:53:28.480Z,77.90
2017-06-25T02:55:56.770Z,78.10
2017-06-25T02:58:25.090Z,78.50
2017-06-25T03:00:54.258Z,78.00
2017-06-25T03:03:22.549Z,77.90
2017-06-25T03:05:50.923Z,78.30
2017-06-25T03:08:19.234Z,78.30
2017-06-25T03:10:48.279Z,78.70
2017-06-25T03:13:16.549Z,78.60
2017-06-25T03:15:44.886Z,79.00
2017-06-25T03:18:13.167Z,79.10
2017-06-25T03:20:41.511Z,78.60
2017-06-25T03:23:09.831Z,78.60
2017-06-25T03:25:38.108Z,78.60
2017-06-25T03:28:06.445Z,78.50
2017-06-25T03:30:42.610Z,78.40
2017-06-25T03:33:10.930Z,78.90
2017-06-25T03:35:39.210Z,79.20
2017-06-25T03:38:07.529Z,80.10
2017-06-25T03:40:35.814Z,81.10
2017-06-25T03:43:04.142Z,82.00
2017-06-25T03:45:32.462Z,83.90
2017-06-25T03:48:01.568Z,85.00
2017-06-25T03:50:29.899Z,85.00
2017-06-25T03:52:58.185Z,85.20
2017-06-25T03:55:26.533Z,85.50
2017-06-25T03:57:54.818Z,85.80
2017-06-25T04:00:23.098Z,86.30
2017-06-25T04:02:51.424Z,86.80
2017-06-25T04:05:19.706Z,87.30
2017-06-25T04:07:48.029Z,87.90
2017-06-25T04:10:28.251Z,88.10
2017-06-25T04:12:56.536Z,88.20
2017-06-25T04:15:24.801Z,87.90
2017-06-25T04:17:53.133Z,88.40
2017-06-25T04:20:37.281Z,88.40
2017-06-25T04:23:05.605Z,88.50
2017-06-25T04:25:33.939Z,88.20
2017-06-25T04:28:02.222Z,88.20
2017-06-25T04:30:30.937Z,88.50
2017-06-25T04:32:59.258Z,88.80
2017-06-25T04:35:27.566Z,88.80
2017-06-25T04:37:55.887Z,89.10
2017-06-25T04:40:28.210Z,89.10
2017-06-25T04:42:56.508Z,89.50
2017-06-25T04:45:24.818Z,89.70
2017-06-25T04:47:53.159Z,89.90
2017-06-25T04:50:21.469Z,90.10
2017-06-25T04:52:51.729Z,89.60
2017-06-25T04:55:21.087Z,90.00
2017-06-25T04:57:49.489Z,90.20
2017-06-25T05:00:17.868Z,90.10
2017-06-25T05:02:46.158Z,90.20
2017-06-25T05:05:15.218Z,90.30
2017-06-25T05:07:43.562Z,90.30
2017-06-25T05:10:11.856Z,90.40
2017-06-25T05:12:40.901Z,90.30
2017-06-25T05:18:08.538Z,90.10
2017-06-25T05:20:36.890Z,89.70
2017-06-25T05:23:06.121Z,89.90
2017-06-25T05:25:36.777Z,90.00
2017-06-25T05:28:05.314Z,90.00
2017-06-25T05:33:34.879Z,89.50
2017-06-25T05:36:03.162Z,88.70
2017-06-25T05:38:31.437Z,89.10
2017-06-25T05:41:00.530Z,88.50
2017-06-25T05:43:28.814Z,88.50
2017-06-25T05:45:57.103Z,88.60
2017-06-25T05:48:25.425Z,88.40
2017-06-25T05:50:53.714Z,87.90
2017-06-25T05:53:21.992Z,87.30
2017-06-25T05:55:50.343Z,88.50
2017-06-25T05:58:20.364Z,89.20
2017-06-25T06:00:49.493Z,87.50
2017-06-25T06:03:17.790Z,86.80
2017-06-25T06:05:46.281Z,86.40
2017-06-25T06:11:11.738Z,86.00
2017-06-25T06:13:40.018Z,85.20
2017-06-25T06:16:08.317Z,86.10
2017-06-25T06:18:36.671Z,84.70
2017-06-25T06:21:05.718Z,85.20
2017-06-25T06:23:34.034Z,84.70
2017-06-25T06:26:02.342Z,84.60
2017-06-25T06:28:30.657Z,84.90
2017-06-25T06:30:58.942Z,84.80
2017-06-25T06:33:27.222Z,85.60
2017-06-25T06:35:55.534Z,84.60
2017-06-25T06:41:27.799Z,84.50
2017-06-25T06:43:56.138Z,84.10
2017-06-25T06:46:26.194Z,84.00
2017-06-25T06:48:54.490Z,84.60
2017-06-25T06:54:17.238Z,84.30
2017-06-25T06:56:46.326Z,83.60
2017-06-25T06:59:15.374Z,84.00
2017-06-25T07:01:43.651Z,84.00
2017-06-25T07:04:11.990Z,84.00
2017-06-25T07:06:40.413Z,82.30
2017-06-25T07:09:09.643Z,82.10
2017-06-25T07:11:37.971Z,82.10
2017-06-25T07:14:06.277Z,82.80
2017-06-25T07:16:34.577Z,82.60
2017-06-25T07:19:03.193Z,82.00
2017-06-25T07:24:28.839Z,82.30
2017-06-25T07:26:57.178Z,82.20
2017-06-25T07:29:25.466Z,81.80
2017-06-25T07:31:53.743Z,81.50
2017-06-25T07:34:22.752Z,81.70
2017-06-25T07:36:51.038Z,81.30
2017-06-25T07:39:19.734Z,81.90
2017-06-25T07:41:49.004Z,79.70
2017-06-25T07:44:18.041Z,80.40
2017-06-25T07:46:46.335Z,80.20
2017-06-25T07:49:14.654Z,80.10
2017-06-25T07:51:42.929Z,79.70
2017-06-25T07:54:11.237Z,78.10
2017-06-25T07:56:40.085Z,78.30
2017-06-25T07:59:08.381Z,79.70
2017-06-25T08:01:57.442Z,80.40
2017-06-25T08:04:25.722Z,80.40
2017-06-25T08:06:58.006Z,80.50
2017-06-25T08:09:38.391Z,81.30
2017-06-25T08:12:09.761Z,79.50
2017-06-25T08:14:38.047Z,81.00
2017-06-25T08:17:11.211Z,80.60
2017-06-25T08:19:39.490Z,81.30
2017-06-25T08:22:08.242Z,81.40
2017-06-25T08:24:36.569Z,79.70
2017-06-25T08:27:04.877Z,80.00
2017-06-25T08:29:33.190Z,78.80
2017-06-25T08:32:01.537Z,78.10
2017-06-25T08:34:29.827Z,79.40
2017-06-25T08:36:58.162Z,79.80
2017-06-25T08:39:26.445Z,79.90
2017-06-25T08:41:54.770Z,81.70
2017-06-25T08:44:23.898Z,83.10
2017-06-25T08:46:52.697Z,83.00
2017-06-25T08:49:20.982Z,84.40
2017-06-25T08:51:59.017Z,84.70
2017-06-25T08:54:27.310Z,84.70
2017-06-25T08:56:55.597Z,84.60
2017-06-25T08:59:23.923Z,84.20
2017-06-25T09:01:52.203Z,82.50
2017-06-25T09:04:20.533Z,82.60
2017-06-25T09:06:48.834Z,81.50
2017-06-25T09:09:17.116Z,81.30
2017-06-25T09:11:46.201Z,77.60
2017-06-25T09:14:19.376Z,77.60
2017-06-25T09:22:51.650Z,76.00
2017-06-25T09:25:30.049Z,76.30
2017-06-25T09:30:56.706Z,75.10
2017-06-25T09:33:24.991Z,75.90
2017-06-25T09:35:53.273Z,75.40
2017-06-25T09:38:26.602Z,73.10
2017-06-25T09:40:54.945Z,71.40
2017-06-25T09:43:23.234Z,71.30
2017-06-25T09:45:51.601Z,72.30
2017-06-25T09:51:39.210Z,71.60
2017-06-25T09:54:13.306Z,73.20
2017-06-25T09:59:38.930Z,77.60
2017-06-25T10:02:08.781Z,77.30
2017-06-25T10:04:37.068Z,77.20
2017-06-25T10:07:05.394Z,79.40
2017-06-25T10:09:33.694Z,80.90
2017-06-25T10:14:59.101Z,82.20
2017-06-25T10:17:27.425Z,81.90
2017-06-25T10:19:59.658Z,81.90
2017-06-25T10:25:30.074Z,82.10
2017-06-25T10:27:58.482Z,82.10
2017-06-25T10:33:35.098Z,82.20
2017-06-25T10:36:03.389Z,82.60
2017-06-25T10:38:33.710Z,79.90
2017-06-25T10:41:02.001Z,78.90
2017-06-25T10:43:30.284Z,82.00
2017-06-25T10:45:58.604Z,82.50
2017-06-25T10:48:26.893Z,79.60
2017-06-25T10:50:55.951Z,78.50
2017-06-25T10:53:24.269Z,78.50
2017-06-25T10:58:50.034Z,72.90
2017-06-25T11:01:19.138Z,72.90
2017-06-25T11:03:47.418Z,72.80
2017-06-25T11:06:25.607Z,75.30
2017-06-25T11:08:53.885Z,72.60
2017-06-25T11:11:22.166Z,70.60
2017-06-25T11:13:59.274Z,71.60
2017-06-25T11:16:27.557Z,68.60
2017-06-25T11:18:55.886Z,65.40
2017-06-25T11:21:24.205Z,67.70
2017-06-25T11:23:52.498Z,66.30
2017-06-25T11:26:22.106Z,67.80
2017-06-25T11:29:11.284Z,67.70
2017-06-25T11:31:39.801Z,65.70
2017-06-25T11:34:08.364Z,66.80
2017-06-25T11:36:36.650Z,67.80
2017-06-25T11:39:04.950Z,69.00
2017-06-25T11:44:25.258Z,66.20
2017-06-25T11:46:53.586Z,65.50
2017-06-25T11:49:21.874Z,66.00
2017-06-25T11:51:50.281Z,67.30
2017-06-25T11:54:18.618Z,67.10
2017-06-25T11:56:47.671Z,65.90
2017-06-25T11:59:16.001Z,65.90
2017-06-25T12:01:44.641Z,66.40
2017-06-25T12:04:13.695Z,68.10
2017-06-25T12:06:42.026Z,68.00
2017-06-25T12:12:08.758Z,68.00
2017-06-25T12:14:53.758Z,66.80
2017-06-25T12:17:22.816Z,67.80
2017-06-25T12:19:58.791Z,67.60
2017-06-25T12:22:27.135Z,67.80
2017-06-25T12:24:55.405Z,63.60
2017-06-25T12:27:24.466Z,61.50
2017-06-25T12:29:52.791Z,61.50
2017-06-25T12:32:21.074Z,64.30
2017-06-25T12:34:49.366Z,65.00
2017-06-25T12:37:18.456Z,64.80
2017-06-25T12:39:46.778Z,64.80
2017-06-25T12:42:15.054Z,65.10
2017-06-25T12:44:43.383Z,65.20
2017-06-25T12:47:11.666Z,65.40
2017-06-25T12:49:39.953Z,66.30
2017-06-25T12:52:09.042Z,67.40
2017-06-25T12:54:37.321Z,67.30
2017-06-25T12:57:06.594Z,69.10
2017-06-25T12:59:34.910Z,69.90
2017-06-25T13:02:03.217Z,73.60
2017-06-25T13:04:31.543Z,70.90
2017-06-25T13:07:00.810Z,77.50
2017-06-25T13:09:29.086Z,81.80
2017-06-25T13:11:57.362Z,86.00
2017-06-25T13:14:25.690Z,87.90
2017-06-25T13:16:53.969Z,87.90
2017-06-25T13:19:22.336Z,90.10
2017-06-25T13:21:52.626Z,89.90
2017-06-25T13:24:40.642Z,90.70
2017-06-25T13:27:08.923Z,89.90
2017-06-25T13:29:37.269Z,90.30
2017-06-25T13:32:13.245Z,90.90
2017-06-25T13:35:02.109Z,89.40
2017-06-25T13:37:30.399Z,89.40
2017-06-25T13:39:58.682Z,88.90
2017-06-25T13:42:27.018Z,90.60
2017-06-25T13:44:56.339Z,89.90
2017-06-25T13:47:24.610Z,90.20
2017-06-25T13:49:52.926Z,88.40
2017-06-25T13:52:21.210Z,88.90
2017-06-25T13:54:49.483Z,89.70
2017-06-25T13:57:27.629Z,88.00
2017-06-25T13:59:55.942Z,86.90
2017-06-25T14:02:24.276Z,86.90
2017-06-25T14:04:52.615Z,86.50
2017-06-25T14:07:34.581Z,88.00
2017-06-25T14:10:02.902Z,88.80
2017-06-25T14:12:31.182Z,88.50
2017-06-25T14:15:00.285Z,86.50
2017-06-25T14:17:35.499Z,86.60
2017-06-25T14:20:04.902Z,86.00
2017-06-25T14:22:39.853Z,85.90
2017-06-25T14:25:08.167Z,86.00
2017-06-25T14:27:37.357Z,86.20
2017-06-25T14:30:05.661Z,86.70
2017-06-25T14:32:34.005Z,88.50
2017-06-25T14:35:02.281Z,86.20
2017-06-25T14:37:30.601Z,85.80
2017-06-25T14:43:05.554Z,85.30
2017-06-25T14:45:33.834Z,86.10
2017-06-25T14:48:02.111Z,87.60
2017-06-25T14:50:30.433Z,87.10
2017-06-25T14:52:58.727Z,85.20
2017-06-25T14:55:27.011Z,86.10
2017-06-25T14:57:56.094Z,82.00
2017-06-25T15:00:37.839Z,80.40
2017-06-25T15:03:06.174Z,80.30
2017-06-25T15:05:41.246Z,77.80
2017-06-25T15:08:10.330Z,68.90
2017-06-25T15:10:38.612Z,68.10
2017-06-25T15:13:06.992Z,66.60
2017-06-25T15:15:35.330Z,62.00
2017-06-25T15:18:03.610Z,56.20
2017-06-25T15:20:31.887Z,54.20
2017-06-25T15:23:00.246Z,53.70
2017-06-25T15:25:28.569Z,48.40
2017-06-25T15:27:56.858Z,51.20
2017-06-25T15:30:25.130Z,51.40
2017-06-25T15:32:53.466Z,50.80
2017-06-25T15:35:21.991Z,53.30
2017-06-25T15:37:51.058Z,47.70
2017-06-25T15:40:19.390Z,47.70
2017-06-25T15:42:48.435Z,42.90
2017-06-25T15:45:16.710Z,43.00
2017-06-25T15:47:45.059Z,41.50
2017-06-25T15:50:13.336Z,39.40
2017-06-25T15:52:54.206Z,41.80
2017-06-25T15:55:22.477Z,42.10
2017-06-25T15:57:50.772Z,43.80
2017-06-25T16:00:19.111Z,47.20
2017-06-25T16:02:47.509Z,48.80
2017-06-25T16:05:16.574Z,52.00
2017-06-25T16:07:44.903Z,51.20
2017-06-25T16:10:21.089Z,51.80
2017-06-25T16:12:49.436Z,49.30
2017-06-25T16:15:17.746Z,45.70
2017-06-25T16:17:46.026Z,43.90
2017-06-25T16:20:14.346Z,42.50
2017-06-25T16:22:42.648Z,41.90
2017-06-25T16:25:10.970Z,41.10
2017-06-25T16:27:39.269Z,40.90
2017-06-25T16:30:07.548Z,40.10
2017-06-25T16:32:35.878Z,47.90
2017-06-25T16:35:14.877Z,53.40
2017-06-25T16:37:43.978Z,54.90
2017-06-25T16:40:12.264Z,54.80
2017-06-25T16:42:40.539Z,56.50
2017-06-25T16:45:26.866Z,58.80
2017-06-25T16:47:55.163Z,60.80
2017-06-25T16:50:23.485Z,60.00
2017-06-25T16:52:52.574Z,62.20
2017-06-25T16:55:21.618Z,62.30
2017-06-25T16:57:49.962Z,63.10
2017-06-25T17:00:18.256Z,62.50
2017-06-25T17:02:46.518Z,63.70
2017-06-25T17:05:14.853Z,63.70
2017-06-25T17:07:46.146Z,65.60
2017-06-25T17:10:14.473Z,66.00
2017-06-25T17:12:42.746Z,66.30
2017-06-25T17:15:11.828Z,68.00
2017-06-25T17:17:40.907Z,68.60
2017-06-25T17:20:21.313Z,68.50
2017-06-25T17:22:49.586Z,68.50
2017-06-25T17:25:17.865Z,69.40
2017-06-25T17:27:46.178Z,70.60
2017-06-25T17:30:14.485Z,74.50
2017-06-25T17:32:45.755Z,78.20
2017-06-25T17:35:14.086Z,79.10
2017-06-25T17:37:43.132Z,80.90
2017-06-25T17:40:11.458Z,80.80
2017-06-25T17:42:40.130Z,78.90
2017-06-25T17:45:08.418Z,79.00
2017-06-25T17:47:36.733Z,78.60
2017-06-25T17:50:06.128Z,78.20
2017-06-25T17:52:34.518Z,80.00
2017-06-25T17:55:02.904Z,78.80
2017-06-25T17:57:43.718Z,79.90
2017-06-25T18:00:12.001Z,78.90
2017-06-25T18:02:40.278Z,78.80
2017-06-25T18:05:15.261Z,77.50
2017-06-25T18:07:43.553Z,75.60
2017-06-25T18:10:13.884Z,76.70
2017-06-25T18:12:42.165Z,75.80
2017-06-25T18:15:11.215Z,77.20
2017-06-25T18:17:39.529Z,77.10
2017-06-25T18:20:07.803Z,77.10
2017-06-25T18:22:36.144Z,77.10
2017-06-25T18:25:05.194Z,76.60
2017-06-25T18:27:33.467Z,76.60
2017-06-25T18:30:02.564Z,78.00
2017-06-25T18:32:31.641Z,77.90
2017-06-25T18:37:58.298Z,78.40
2017-06-25T18:40:26.573Z,79.10
2017-06-25T18:43:00.988Z,79.60
2017-06-25T18:45:29.274Z,79.20
2017-06-25T18:48:02.427Z,78.60
2017-06-25T18:50:30.722Z,78.50
2017-06-25T18:52:59.002Z,79.10
2017-06-25T18:55:31.241Z,79.20
2017-06-25T18:58:00.436Z,79.40
2017-06-25T19:00:35.666Z,79.40
2017-06-25T19:03:08.841Z,79.40
2017-06-25T19:05:55.119Z,79.10
2017-06-25T19:08:23.409Z,79.30
2017-06-25T19:10:51.693Z,80.10
2017-06-25T19:13:20.013Z,79.40
2017-06-25T19:15:48.846Z,79.10
2017-06-25T19:18:17.209Z,78.90
2017-06-25T19:20:46.254Z,79.10
2017-06-25T19:23:14.534Z,79.10
2017-06-25T19:25:42.883Z,79.20
2017-06-25T19:28:11.172Z,79.30
2017-06-25T19:30:39.466Z,80.10
2017-06-25T19:33:07.797Z,79.30
2017-06-25T19:35:36.852Z,79.30
2017-06-25T19:38:05.125Z,79.20
2017-06-25T19:40:34.551Z,79.60
2017-06-25T19:43:02.894Z,79.50
2017-06-25T19:45:38.870Z,79.40
2017-06-25T19:48:07.274Z,79.40
2017-06-25T19:50:37.527Z,79.40
2017-06-25T19:53:05.874Z,80.00
2017-06-25T19:55:41.028Z,80.90
2017-06-25T19:58:10.370Z,80.90
2017-06-25T20:00:38.646Z,80.80
2017-06-25T20:03:07.689Z,81.40
2017-06-25T20:05:50.815Z,81.30
2017-06-25T20:08:25.986Z,81.60
2017-06-25T20:10:54.378Z,81.70
2017-06-25T20:13:22.670Z,81.80
2017-06-25T20:15:51.769Z,83.00
2017-06-25T20:18:20.060Z,82.10
2017-06-25T20:20:48.385Z,82.70
2017-06-25T20:23:17.429Z,83.40
2017-06-25T20:25:45.770Z,83.40
2017-06-25T20:28:14.046Z,83.80
2017-06-25T20:30:42.323Z,83.90
2017-06-25T20:33:10.638Z,84.30
2017-06-25T20:35:38.919Z,84.40
2017-06-25T20:38:07.201Z,84.70
2017-06-25T20:40:36.002Z,84.60
2017-06-25T20:43:04.342Z,84.50
2017-06-25T20:45:32.619Z,84.30
2017-06-25T20:48:00.913Z,85.00
2017-06-25T20:50:29.253Z,85.50
2017-06-25T20:53:00.278Z,85.80
2017-06-25T20:55:29.355Z,85.70
2017-06-25T20:57:58.394Z,86.00
2017-06-25T21:00:26.958Z,85.80
2017-06-25T21:02:55.469Z,86.00
2017-06-25T21:05:24.510Z,85.80
2017-06-25T21:07:52.837Z,85.70
2017-06-25T21:10:21.113Z,85.80
2017-06-25T21:12:50.367Z,85.60
2017-06-25T21:15:18.686Z,85.80
2017-06-25T21:17:47.016Z,85.70
2017-06-25T21:20:15.297Z,86.00
2017-06-25T21:22:43.566Z,86.20
2017-06-25T21:25:11.885Z,86.10
2017-06-25T21:27:40.163Z,85.40
2017-06-25T21:30:08.471Z,85.50
2017-06-25T21:32:36.793Z,86.00
2017-06-25T21:35:05.113Z,86.20
2017-06-25T21:37:34.156Z,87.20
2017-06-25T21:40:02.514Z,87.90
2017-06-25T21:42:30.794Z,87.90
2017-06-25T21:44:59.074Z,89.00
2017-06-25T21:47:28.150Z,89.50
2017-06-25T21:49:57.330Z,89.40
2017-06-25T21:52:26.407Z,90.10
2017-06-25T21:54:55.459Z,89.90
2017-06-25T21:57:23.833Z,89.90
2017-06-25T21:59:52.098Z,90.10
2017-06-25T22:02:20.454Z,90.10
2017-06-25T22:04:48.723Z,90.10
2017-06-25T22:07:17.002Z,90.10
2017-06-25T22:09:45.310Z,90.10
2017-06-25T22:12:13.629Z,90.20
2017-06-25T22:14:42.673Z,90.30
2017-06-25T22:17:10.945Z,90.30
2017-06-25T22:19:39.276Z,90.20
2017-06-25T22:22:07.549Z,90.00
2017-06-25T22:24:35.828Z,90.00
2017-06-25T22:27:04.158Z,89.60
2017-06-25T22:29:32.448Z,90.00
2017-06-25T22:32:00.726Z,89.90
2017-06-25T22:34:29.809Z,90.10
2017-06-25T22:36:58.852Z,90.20
2017-06-25T22:39:27.125Z,90.20
2017-06-25T22:41:55.465Z,90.20
2017-06-25T22:44:23.782Z,90.50
2017-06-25T22:46:59.638Z,90.40
2017-06-25T22:49:27.918Z,90.40
2017-06-25T22:51:56.199Z,90.50
2017-06-25T22:54:24.517Z,90.80
2017-06-25T22:56:52.838Z,90.40
2017-06-25T22:59:21.122Z,90.20
2017-06-25T23:01:49.430Z,90.30
2017-06-25T23:04:17.767Z,90.30
2017-06-25T23:06:46.045Z,90.20
2017-06-25T23:09:14.335Z,90.00
2017-06-25T23:11:42.642Z,90.00
2017-06-25T23:14:10.913Z,88.90
2017-06-25T23:16:39.229Z,88.60
2017-06-25T23:19:07.510Z,88.40
2017-06-25T23:21:36.594Z,88.80
2017-06-25T23:24:05.637Z,88.90
2017-06-25T23:26:33.917Z,88.90
2017-06-25T23:29:02.230Z,88.40
2017-06-25T23:31:30.690Z,88.70
2017-06-25T23:33:59.013Z,89.20
2017-06-25T23:36:27.293Z,88.50
2017-06-25T23:38:56.334Z,88.90
2017-06-25T23:41:24.650Z,88.90
2017-06-25T23:43:52.922Z,89.10
2017-06-25T23:46:21.242Z,88.70
2017-06-25T23:48:51.306Z,88.50
2017-06-25T23:51:19.585Z,88.70
2017-06-25T23:53:47.910Z,89.20
2017-06-25T23:56:16.186Z,88.40
2017-06-25T23:58:44.465Z,88.40
